Flugplatz Kempten-Durach Airport

Für Kempten-Durach Airport sind keine METAR/TAF Berichte vorhanden.
Es werden die Flugwettermeldungen vom Flugplatz Memmingen Allgau Airport in 33 km Entfernung angezeigt.

Bericht für EDJA

vom 22.02. um 21:20 UTC

Wind 18 kt aus 200°

Sichtweite 9700 m

schwacher Regen

aufgebrochene Bewölkung in 4800 ft

bedeckt in 5600 ft

Temperatur 8°C

Taupunkt 6°C

Luftfeuchtigkeit 87%

Luftdruck 994 hPa

EDJA 222120Z 20018KT 9999 -RA BKN048 OVC056 08/06 Q0994

Prognose für EDJA

vom 22.02. um 17:00 UTC

Zwischen 18:00 UTC und 21:00 UTC

Wind 15 kt aus 220° in Böen 25 kt

Sichtweite 9700 m

aufgebrochene Bewölkung in 4000 ft


Zwischen 18:00 UTC und 01:00 UTC zeitweise

Regen


Zwischen 21:00 und 00:00 UTC übergehend zu

Wind 30 kt aus 240° in Böen 45 kt

Sichtweite 9700 m

aufgebrochene Bewölkung in 4000 ft


Zwischen 22:00 und 00:00 UTC übergehend zu

Wind 20 kt aus 240° in Böen 30 kt

Sichtweite 9700 m

aufgebrochene Bewölkung in 4000 ft

TAF EDJA 221700Z 2218/2303 22015G25KT 9999 BKN040 TEMPO 2218/2301 RA BECMG 2221/2222 24030G45KT BECMG 2222/2223 24020G30KT
Impressum